sensor_id;sensor_type;location;lat;lon;timestamp;temperature;humidity
79244;SHT31;68672;42.676;23.356;2023-04-03T00:00:28;9.87;55.41
79244;SHT31;68672;42.676;23.356;2023-04-03T00:02:53;9.82;55.63
79244;SHT31;68672;42.676;23.356;2023-04-03T00:05:19;9.82;55.56
79244;SHT31;68672;42.676;23.356;2023-04-03T00:07:44;9.81;55.56
79244;SHT31;68672;42.676;23.356;2023-04-03T00:10:13;9.75;55.58
79244;SHT31;68672;42.676;23.356;2023-04-03T00:12:40;9.75;55.53
79244;SHT31;68672;42.676;23.356;2023-04-03T00:15:05;9.72;55.75
79244;SHT31;68672;42.676;23.356;2023-04-03T00:17:31;9.65;56.42
79244;SHT31;68672;42.676;23.356;2023-04-03T00:19:59;9.62;56.20
79244;SHT31;68672;42.676;23.356;2023-04-03T00:22:27;9.62;55.89
79244;SHT31;68672;42.676;23.356;2023-04-03T00:24:54;9.55;56.02
79244;SHT31;68672;42.676;23.356;2023-04-03T00:27:20;9.49;56.14
79244;SHT31;68672;42.676;23.356;2023-04-03T00:29:48;9.46;56.40
79244;SHT31;68672;42.676;23.356;2023-04-03T00:32:13;9.44;56.56
79244;SHT31;68672;42.676;23.356;2023-04-03T00:34:39;9.36;56.86
79244;SHT31;68672;42.676;23.356;2023-04-03T00:37:04;9.30;56.94
79244;SHT31;68672;42.676;23.356;2023-04-03T00:39:30;9.25;57.25
79244;SHT31;68672;42.676;23.356;2023-04-03T00:41:55;9.23;57.42
79244;SHT31;68672;42.676;23.356;2023-04-03T00:47:08;9.14;57.60
79244;SHT31;68672;42.676;23.356;2023-04-03T00:49:35;9.13;57.71
79244;SHT31;68672;42.676;23.356;2023-04-03T00:52:01;9.11;58.01
79244;SHT31;68672;42.676;23.356;2023-04-03T00:54:27;9.05;58.33
79244;SHT31;68672;42.676;23.356;2023-04-03T00:56:55;8.96;58.55
79244;SHT31;68672;42.676;23.356;2023-04-03T00:59:24;8.90;58.67
79244;SHT31;68672;42.676;23.356;2023-04-03T01:01:55;8.79;58.75
79244;SHT31;68672;42.676;23.356;2023-04-03T01:04:36;8.77;58.57
79244;SHT31;68672;42.676;23.356;2023-04-03T01:09:40;8.59;59.09
79244;SHT31;68672;42.676;23.356;2023-04-03T01:12:28;8.53;59.37
79244;SHT31;68672;42.676;23.356;2023-04-03T01:14:56;8.52;59.94
79244;SHT31;68672;42.676;23.356;2023-04-03T01:17:37;8.45;60.04
79244;SHT31;68672;42.676;23.356;2023-04-03T01:25:28;8.28;60.79
79244;SHT31;68672;42.676;23.356;2023-04-03T01:27:53;8.22;60.83
79244;SHT31;68672;42.676;23.356;2023-04-03T01:30:21;8.21;60.70
79244;SHT31;68672;42.676;23.356;2023-04-03T01:32:48;8.20;60.79
79244;SHT31;68672;42.676;23.356;2023-04-03T01:35:14;8.22;60.88
79244;SHT31;68672;42.676;23.356;2023-04-03T01:37:39;8.22;60.91
79244;SHT31;68672;42.676;23.356;2023-04-03T01:40:05;8.21;61.16
79244;SHT31;68672;42.676;23.356;2023-04-03T01:42:32;8.18;61.10
79244;SHT31;68672;42.676;23.356;2023-04-03T01:44:57;8.16;61.09
79244;SHT31;68672;42.676;23.356;2023-04-03T01:47:23;8.11;61.49
79244;SHT31;68672;42.676;23.356;2023-04-03T01:49:48;8.12;61.54
79244;SHT31;68672;42.676;23.356;2023-04-03T01:52:14;8.14;61.59
79244;SHT31;68672;42.676;23.356;2023-04-03T01:54:39;8.12;61.61
79244;SHT31;68672;42.676;23.356;2023-04-03T01:57:04;8.14;61.45
79244;SHT31;68672;42.676;23.356;2023-04-03T01:59:30;8.14;61.40
79244;SHT31;68672;42.676;23.356;2023-04-03T02:01:56;8.16;61.33
79244;SHT31;68672;42.676;23.356;2023-04-03T02:04:24;8.18;61.24
79244;SHT31;68672;42.676;23.356;2023-04-03T02:06:50;8.18;61.57
79244;SHT31;68672;42.676;23.356;2023-04-03T02:09:15;8.21;61.60
79244;SHT31;68672;42.676;23.356;2023-04-03T02:11:41;8.22;61.60
79244;SHT31;68672;42.676;23.356;2023-04-03T02:14:06;8.24;61.65
79244;SHT31;68672;42.676;23.356;2023-04-03T02:16:32;8.22;61.70
79244;SHT31;68672;42.676;23.356;2023-04-03T02:18:57;8.21;61.81
79244;SHT31;68672;42.676;23.356;2023-04-03T02:21:22;8.16;61.81
79244;SHT31;68672;42.676;23.356;2023-04-03T02:23:48;8.09;61.73
79244;SHT31;68672;42.676;23.356;2023-04-03T02:26:15;8.09;62.06
79244;SHT31;68672;42.676;23.356;2023-04-03T02:28:41;8.05;62.43
79244;SHT31;68672;42.676;23.356;2023-04-03T02:31:10;8.04;62.51
79244;SHT31;68672;42.676;23.356;2023-04-03T02:33:36;8.04;62.33
79244;SHT31;68672;42.676;23.356;2023-04-03T02:36:05;8.01;62.26
79244;SHT31;68672;42.676;23.356;2023-04-03T02:38:35;7.94;62.12
79244;SHT31;68672;42.676;23.356;2023-04-03T02:41:05;7.94;62.01
79244;SHT31;68672;42.676;23.356;2023-04-03T02:43:31;7.90;62.64
79244;SHT31;68672;42.676;23.356;2023-04-03T02:45:56;7.81;62.72
79244;SHT31;68672;42.676;23.356;2023-04-03T02:48:22;7.76;62.87
79244;SHT31;68672;42.676;23.356;2023-04-03T02:50:48;7.77;63.01
79244;SHT31;68672;42.676;23.356;2023-04-03T02:53:23;7.76;62.98
79244;SHT31;68672;42.676;23.356;2023-04-03T02:55:49;7.73;62.92
79244;SHT31;68672;42.676;23.356;2023-04-03T02:58:14;7.71;62.98
79244;SHT31;68672;42.676;23.356;2023-04-03T03:00:40;7.66;63.24
79244;SHT31;68672;42.676;23.356;2023-04-03T03:03:06;7.69;63.69
79244;SHT31;68672;42.676;23.356;2023-04-03T03:05:32;7.63;63.73
79244;SHT31;68672;42.676;23.356;2023-04-03T03:07:57;7.63;63.68
79244;SHT31;68672;42.676;23.356;2023-04-03T03:10:23;7.63;63.51
79244;SHT31;68672;42.676;23.356;2023-04-03T03:12:49;7.67;63.60
79244;SHT31;68672;42.676;23.356;2023-04-03T03:15:14;7.64;63.35
79244;SHT31;68672;42.676;23.356;2023-04-03T03:17:41;7.69;63.11
79244;SHT31;68672;42.676;23.356;2023-04-03T03:20:07;7.64;63.05
79244;SHT31;68672;42.676;23.356;2023-04-03T03:22:35;7.57;63.00
79244;SHT31;68672;42.676;23.356;2023-04-03T03:25:02;7.56;63.14
79244;SHT31;68672;42.676;23.356;2023-04-03T03:27:28;7.53;63.02
79244;SHT31;68672;42.676;23.356;2023-04-03T03:29:53;7.52;63.17
79244;SHT31;68672;42.676;23.356;2023-04-03T03:32:21;7.50;63.08
79244;SHT31;68672;42.676;23.356;2023-04-03T03:34:47;7.49;63.30
79244;SHT31;68672;42.676;23.356;2023-04-03T03:37:12;7.46;63.41
79244;SHT31;68672;42.676;23.356;2023-04-03T03:39:40;7.49;63.55
79244;SHT31;68672;42.676;23.356;2023-04-03T03:42:06;7.50;63.67
79244;SHT31;68672;42.676;23.356;2023-04-03T03:44:31;7.46;63.65
79244;SHT31;68672;42.676;23.356;2023-04-03T03:46:57;7.47;63.67
79244;SHT31;68672;42.676;23.356;2023-04-03T03:49:22;7.46;63.70
79244;SHT31;68672;42.676;23.356;2023-04-03T03:51:51;7.49;63.67
79244;SHT31;68672;42.676;23.356;2023-04-03T03:54:17;7.46;63.74
79244;SHT31;68672;42.676;23.356;2023-04-03T03:56:42;7.46;63.87
79244;SHT31;68672;42.676;23.356;2023-04-03T03:59:11;7.43;63.95
79244;SHT31;68672;42.676;23.356;2023-04-03T04:01:36;7.43;64.11
79244;SHT31;68672;42.676;23.356;2023-04-03T04:04:04;7.43;64.37
79244;SHT31;68672;42.676;23.356;2023-04-03T04:06:31;7.46;64.46
79244;SHT31;68672;42.676;23.356;2023-04-03T04:08:56;7.43;64.18
79244;SHT31;68672;42.676;23.356;2023-04-03T04:11:25;7.43;63.94
79244;SHT31;68672;42.676;23.356;2023-04-03T04:13:52;7.36;64.32
79244;SHT31;68672;42.676;23.356;2023-04-03T04:16:17;7.33;64.45
79244;SHT31;68672;42.676;23.356;2023-04-03T04:18:43;7.39;64.15
79244;SHT31;68672;42.676;23.356;2023-04-03T04:21:08;7.36;64.11
79244;SHT31;68672;42.676;23.356;2023-04-03T04:23:36;7.37;64.15
79244;SHT31;68672;42.676;23.356;2023-04-03T04:26:01;7.35;64.25
79244;SHT31;68672;42.676;23.356;2023-04-03T04:28:27;7.35;64.49
79244;SHT31;68672;42.676;23.356;2023-04-03T04:30:52;7.33;64.89
79244;SHT31;68672;42.676;23.356;2023-04-03T04:33:18;7.39;65.09
79244;SHT31;68672;42.676;23.356;2023-04-03T04:35:43;7.37;64.70
79244;SHT31;68672;42.676;23.356;2023-04-03T04:38:09;7.26;65.03
79244;SHT31;68672;42.676;23.356;2023-04-03T04:40:34;7.26;65.06
79244;SHT31;68672;42.676;23.356;2023-04-03T04:43:00;7.29;64.75
79244;SHT31;68672;42.676;23.356;2023-04-03T04:45:31;7.32;64.68
79244;SHT31;68672;42.676;23.356;2023-04-03T04:47:56;7.33;64.80
79244;SHT31;68672;42.676;23.356;2023-04-03T04:50:22;7.32;64.87
79244;SHT31;68672;42.676;23.356;2023-04-03T04:52:47;7.39;64.76
79244;SHT31;68672;42.676;23.356;2023-04-03T04:55:16;7.46;64.50
79244;SHT31;68672;42.676;23.356;2023-04-03T04:57:41;7.47;64.51
79244;SHT31;68672;42.676;23.356;2023-04-03T05:00:07;7.49;64.74
79244;SHT31;68672;42.676;23.356;2023-04-03T05:02:33;7.54;64.58
79244;SHT31;68672;42.676;23.356;2023-04-03T05:04:58;7.66;64.38
79244;SHT31;68672;42.676;23.356;2023-04-03T05:07:27;7.69;64.21
79244;SHT31;68672;42.676;23.356;2023-04-03T05:09:52;7.71;64.21
79244;SHT31;68672;42.676;23.356;2023-04-03T05:12:18;7.78;64.10
79244;SHT31;68672;42.676;23.356;2023-04-03T05:14:43;7.85;63.92
79244;SHT31;68672;42.676;23.356;2023-04-03T05:17:09;7.97;63.70
79244;SHT31;68672;42.676;23.356;2023-04-03T05:19:34;7.95;63.71
79244;SHT31;68672;42.676;23.356;2023-04-03T05:21:59;7.99;63.38
79244;SHT31;68672;42.676;23.356;2023-04-03T05:24:28;8.11;63.18
79244;SHT31;68672;42.676;23.356;2023-04-03T05:26:53;8.15;63.16
79244;SHT31;68672;42.676;23.356;2023-04-03T05:29:19;8.28;62.79
79244;SHT31;68672;42.676;23.356;2023-04-03T05:31:44;8.39;62.31
79244;SHT31;68672;42.676;23.356;2023-04-03T05:34:12;8.41;62.91
79244;SHT31;68672;42.676;23.356;2023-04-03T05:36:38;8.48;63.21
79244;SHT31;68672;42.676;23.356;2023-04-03T05:39:03;8.57;63.26
79244;SHT31;68672;42.676;23.356;2023-04-03T05:41:34;8.63;62.98
79244;SHT31;68672;42.676;23.356;2023-04-03T05:44:00;8.72;62.60
79244;SHT31;68672;42.676;23.356;2023-04-03T05:46:25;8.81;62.58
79244;SHT31;68672;42.676;23.356;2023-04-03T05:48:51;8.83;62.16
79244;SHT31;68672;42.676;23.356;2023-04-03T05:51:22;8.91;61.85
79244;SHT31;68672;42.676;23.356;2023-04-03T05:53:52;8.97;61.89
79244;SHT31;68672;42.676;23.356;2023-04-03T05:56:23;9.08;61.80
79244;SHT31;68672;42.676;23.356;2023-04-03T05:58:48;9.14;61.47
79244;SHT31;68672;42.676;23.356;2023-04-03T06:01:13;9.28;60.92
79244;SHT31;68672;42.676;23.356;2023-04-03T06:03:43;9.38;60.58
79244;SHT31;68672;42.676;23.356;2023-04-03T06:06:13;9.44;60.72
79244;SHT31;68672;42.676;23.356;2023-04-03T06:08:39;9.52;59.58
79244;SHT31;68672;42.676;23.356;2023-04-03T06:11:04;9.54;58.94
79244;SHT31;68672;42.676;23.356;2023-04-03T06:13:30;9.54;59.00
79244;SHT31;68672;42.676;23.356;2023-04-03T06:15:55;9.61;58.85
79244;SHT31;68672;42.676;23.356;2023-04-03T06:18:21;9.68;58.39
79244;SHT31;68672;42.676;23.356;2023-04-03T06:20:47;9.76;58.09
79244;SHT31;68672;42.676;23.356;2023-04-03T06:23:12;9.83;58.34
79244;SHT31;68672;42.676;23.356;2023-04-03T06:25:38;9.86;58.34
79244;SHT31;68672;42.676;23.356;2023-04-03T06:28:03;9.92;58.13
79244;SHT31;68672;42.676;23.356;2023-04-03T06:30:28;10.02;57.61
79244;SHT31;68672;42.676;23.356;2023-04-03T06:32:54;10.09;57.49
79244;SHT31;68672;42.676;23.356;2023-04-03T06:35:20;10.17;57.06
79244;SHT31;68672;42.676;23.356;2023-04-03T06:37:48;10.30;56.63
79244;SHT31;68672;42.676;23.356;2023-04-03T06:40:25;10.29;56.38
79244;SHT31;68672;42.676;23.356;2023-04-03T06:42:51;10.36;56.22
79244;SHT31;68672;42.676;23.356;2023-04-03T06:45:20;10.47;56.24
79244;SHT31;68672;42.676;23.356;2023-04-03T06:47:46;10.54;56.04
79244;SHT31;68672;42.676;23.356;2023-04-03T06:50:12;10.63;55.99
79244;SHT31;68672;42.676;23.356;2023-04-03T06:52:40;10.65;55.39
79244;SHT31;68672;42.676;23.356;2023-04-03T06:55:05;10.65;55.61
79244;SHT31;68672;42.676;23.356;2023-04-03T06:57:31;10.64;55.84
79244;SHT31;68672;42.676;23.356;2023-04-03T06:59:57;10.63;55.87
79244;SHT31;68672;42.676;23.356;2023-04-03T07:02:22;10.69;55.61
79244;SHT31;68672;42.676;23.356;2023-04-03T07:04:48;10.76;55.56
79244;SHT31;68672;42.676;23.356;2023-04-03T07:07:13;10.79;55.55
79244;SHT31;68672;42.676;23.356;2023-04-03T07:09:39;10.88;55.39
79244;SHT31;68672;42.676;23.356;2023-04-03T07:12:04;10.98;55.28
79244;SHT31;68672;42.676;23.356;2023-04-03T07:14:30;11.06;55.00
79244;SHT31;68672;42.676;23.356;2023-04-03T07:16:55;11.20;55.05
79244;SHT31;68672;42.676;23.356;2023-04-03T07:19:21;11.33;54.81
79244;SHT31;68672;42.676;23.356;2023-04-03T07:21:46;11.43;54.30
79244;SHT31;68672;42.676;23.356;2023-04-03T07:24:14;11.56;53.75
79244;SHT31;68672;42.676;23.356;2023-04-03T07:26:40;11.59;53.53
79244;SHT31;68672;42.676;23.356;2023-04-03T07:29:06;11.74;53.47
79244;SHT31;68672;42.676;23.356;2023-04-03T07:31:31;11.83;53.47
79244;SHT31;68672;42.676;23.356;2023-04-03T07:33:56;11.91;53.60
79244;SHT31;68672;42.676;23.356;2023-04-03T07:36:22;11.99;53.57
79244;SHT31;68672;42.676;23.356;2023-04-03T07:38:48;12.12;53.62
79244;SHT31;68672;42.676;23.356;2023-04-03T07:41:18;12.21;53.09
79244;SHT31;68672;42.676;23.356;2023-04-03T07:43:45;12.32;52.81
79244;SHT31;68672;42.676;23.356;2023-04-03T07:46:11;12.41;52.30
79244;SHT31;68672;42.676;23.356;2023-04-03T07:48:37;12.52;52.29
79244;SHT31;68672;42.676;23.356;2023-04-03T07:51:04;12.56;51.91
79244;SHT31;68672;42.676;23.356;2023-04-03T07:53:29;12.60;51.70
79244;SHT31;68672;42.676;23.356;2023-04-03T07:55:58;12.62;51.24
79244;SHT31;68672;42.676;23.356;2023-04-03T07:58:25;12.57;51.23
79244;SHT31;68672;42.676;23.356;2023-04-03T08:00:51;12.62;51.20
79244;SHT31;68672;42.676;23.356;2023-04-03T08:03:17;12.69;51.40
79244;SHT31;68672;42.676;23.356;2023-04-03T08:05:45;12.80;51.29
79244;SHT31;68672;42.676;23.356;2023-04-03T08:08:12;12.87;51.17
79244;SHT31;68672;42.676;23.356;2023-04-03T08:10:39;12.94;50.84
79244;SHT31;68672;42.676;23.356;2023-04-03T08:13:05;12.92;50.93
79244;SHT31;68672;42.676;23.356;2023-04-03T08:15:31;13.03;50.56
79244;SHT31;68672;42.676;23.356;2023-04-03T08:17:58;13.10;49.69
79244;SHT31;68672;42.676;23.356;2023-04-03T08:20:23;13.07;49.71
79244;SHT31;68672;42.676;23.356;2023-04-03T08:22:49;13.00;49.98
79244;SHT31;68672;42.676;23.356;2023-04-03T08:25:14;12.97;50.15
79244;SHT31;68672;42.676;23.356;2023-04-03T08:27:40;13.01;50.13
79244;SHT31;68672;42.676;23.356;2023-04-03T08:30:06;13.07;50.13
79244;SHT31;68672;42.676;23.356;2023-04-03T08:32:36;12.99;50.13
79244;SHT31;68672;42.676;23.356;2023-04-03T08:35:04;12.96;50.60
79244;SHT31;68672;42.676;23.356;2023-04-03T08:37:30;12.92;50.46
79244;SHT31;68672;42.676;23.356;2023-04-03T08:39:55;12.93;50.82
79244;SHT31;68672;42.676;23.356;2023-04-03T08:42:30;13.06;50.82
79244;SHT31;68672;42.676;23.356;2023-04-03T08:45:11;13.21;50.19
79244;SHT31;68672;42.676;23.356;2023-04-03T08:47:42;13.28;49.60
79244;SHT31;68672;42.676;23.356;2023-04-03T08:50:19;13.35;48.97
79244;SHT31;68672;42.676;23.356;2023-04-03T08:52:50;13.37;49.13
79244;SHT31;68672;42.676;23.356;2023-04-03T09:00:25;13.38;48.73
79244;SHT31;68672;42.676;23.356;2023-04-03T09:02:55;13.42;48.66
79244;SHT31;68672;42.676;23.356;2023-04-03T09:05:40;13.45;48.94
79244;SHT31;68672;42.676;23.356;2023-04-03T09:08:24;13.50;48.77
79244;SHT31;68672;42.676;23.356;2023-04-03T09:11:05;13.54;48.47
79244;SHT31;68672;42.676;23.356;2023-04-03T09:13:49;13.63;48.07
79244;SHT31;68672;42.676;23.356;2023-04-03T09:16:35;13.65;48.49
79244;SHT31;68672;42.676;23.356;2023-04-03T09:19:38;13.68;48.84
79244;SHT31;68672;42.676;23.356;2023-04-03T09:24:43;13.79;48.83
79244;SHT31;68672;42.676;23.356;2023-04-03T09:27:10;13.93;48.64
79244;SHT31;68672;42.676;23.356;2023-04-03T09:29:41;14.09;48.20
79244;SHT31;68672;42.676;23.356;2023-04-03T09:32:28;14.29;48.04
79244;SHT31;68672;42.676;23.356;2023-04-03T09:34:57;14.44;47.76
79244;SHT31;68672;42.676;23.356;2023-04-03T09:37:54;14.63;47.26
79244;SHT31;68672;42.676;23.356;2023-04-03T09:42:54;14.84;46.54
79244;SHT31;68672;42.676;23.356;2023-04-03T09:48:16;15.09;45.82
79244;SHT31;68672;42.676;23.356;2023-04-03T09:50:53;15.11;45.82
79244;SHT31;68672;42.676;23.356;2023-04-03T09:53:37;15.08;45.67
79244;SHT31;68672;42.676;23.356;2023-04-03T09:58:43;15.02;46.03
79244;SHT31;68672;42.676;23.356;2023-04-03T10:01:30;15.05;46.30
79244;SHT31;68672;42.676;23.356;2023-04-03T10:04:10;15.03;46.33
79244;SHT31;68672;42.676;23.356;2023-04-03T10:12:24;14.93;46.21
79244;SHT31;68672;42.676;23.356;2023-04-03T10:22:37;14.56;46.53
79244;SHT31;68672;42.676;23.356;2023-04-03T10:27:50;14.52;47.22
79244;SHT31;68672;42.676;23.356;2023-04-03T10:33:20;14.51;47.57
79244;SHT31;68672;42.676;23.356;2023-04-03T10:43:56;14.54;47.30
79244;SHT31;68672;42.676;23.356;2023-04-03T10:46:49;14.56;46.73
79244;SHT31;68672;42.676;23.356;2023-04-03T10:49:26;14.50;46.92
79244;SHT31;68672;42.676;23.356;2023-04-03T10:57:56;14.52;47.21
79244;SHT31;68672;42.676;23.356;2023-04-03T11:00:37;14.51;47.42
79244;SHT31;68672;42.676;23.356;2023-04-03T11:03:09;14.51;47.52
79244;SHT31;68672;42.676;23.356;2023-04-03T11:05:42;14.41;47.33
79244;SHT31;68672;42.676;23.356;2023-04-03T11:08:26;14.36;47.38
79244;SHT31;68672;42.676;23.356;2023-04-03T11:10:57;14.27;47.64
79244;SHT31;68672;42.676;23.356;2023-04-03T11:13:35;14.26;48.53
79244;SHT31;68672;42.676;23.356;2023-04-03T11:16:06;14.20;50.35
79244;SHT31;68672;42.676;23.356;2023-04-03T11:18:39;14.09;50.89
79244;SHT31;68672;42.676;23.356;2023-04-03T11:21:20;14.02;51.61
79244;SHT31;68672;42.676;23.356;2023-04-03T11:23:47;13.90;51.97
79244;SHT31;68672;42.676;23.356;2023-04-03T11:26:16;13.89;52.07
79244;SHT31;68672;42.676;23.356;2023-04-03T11:28:42;13.79;53.46
79244;SHT31;68672;42.676;23.356;2023-04-03T11:34:13;13.63;56.60
79244;SHT31;68672;42.676;23.356;2023-04-03T11:36:54;13.52;56.89
79244;SHT31;68672;42.676;23.356;2023-04-03T11:39:27;13.54;57.43
79244;SHT31;68672;42.676;23.356;2023-04-03T11:41:54;13.54;57.40
79244;SHT31;68672;42.676;23.356;2023-04-03T11:44:36;13.44;58.75
79244;SHT31;68672;42.676;23.356;2023-04-03T11:47:03;13.31;57.45
79244;SHT31;68672;42.676;23.356;2023-04-03T12:05:53;12.25;63.61
79244;SHT31;68672;42.676;23.356;2023-04-03T12:14:02;12.12;65.61
79244;SHT31;68672;42.676;23.356;2023-04-03T12:27:16;12.06;67.23
79244;SHT31;68672;42.676;23.356;2023-04-03T12:30:25;12.01;68.12
79244;SHT31;68672;42.676;23.356;2023-04-03T12:33:04;11.97;68.31
79244;SHT31;68672;42.676;23.356;2023-04-03T12:35:40;11.91;68.02
79244;SHT31;68672;42.676;23.356;2023-04-03T12:41:25;11.81;68.76
79244;SHT31;68672;42.676;23.356;2023-04-03T12:46:46;11.74;69.53
79244;SHT31;68672;42.676;23.356;2023-04-03T12:49:38;11.71;69.85
79244;SHT31;68672;42.676;23.356;2023-04-03T12:52:35;11.69;70.22
79244;SHT31;68672;42.676;23.356;2023-04-03T12:55:00;11.67;70.60
79244;SHT31;68672;42.676;23.356;2023-04-03T12:57:29;11.69;70.96
79244;SHT31;68672;42.676;23.356;2023-04-03T13:00:34;11.71;71.14
79244;SHT31;68672;42.676;23.356;2023-04-03T13:03:15;11.62;71.17
79244;SHT31;68672;42.676;23.356;2023-04-03T13:05:45;11.53;71.01
79244;SHT31;68672;42.676;23.356;2023-04-03T13:08:13;11.50;71.62
79244;SHT31;68672;42.676;23.356;2023-04-03T13:10:52;11.44;71.51
79244;SHT31;68672;42.676;23.356;2023-04-03T13:13:18;11.39;71.76
79244;SHT31;68672;42.676;23.356;2023-04-03T13:15:46;11.33;71.86
79244;SHT31;68672;42.676;23.356;2023-04-03T13:18:34;11.33;72.45
79244;SHT31;68672;42.676;23.356;2023-04-03T13:21:21;11.29;72.40
79244;SHT31;68672;42.676;23.356;2023-04-03T13:23:50;11.29;72.61
79244;SHT31;68672;42.676;23.356;2023-04-03T13:26:17;11.26;72.87
79244;SHT31;68672;42.676;23.356;2023-04-03T13:28:44;11.20;73.01
79244;SHT31;68672;42.676;23.356;2023-04-03T13:33:56;11.25;73.17
79244;SHT31;68672;42.676;23.356;2023-04-03T13:36:26;11.23;73.45
79244;SHT31;68672;42.676;23.356;2023-04-03T13:39:05;11.25;73.51
79244;SHT31;68672;42.676;23.356;2023-04-03T13:41:39;11.20;73.23
79244;SHT31;68672;42.676;23.356;2023-04-03T13:44:36;11.15;73.27
79244;SHT31;68672;42.676;23.356;2023-04-03T13:49:39;10.94;73.55
79244;SHT31;68672;42.676;23.356;2023-04-03T13:52:33;10.88;74.00
79244;SHT31;68672;42.676;23.356;2023-04-03T13:55:20;10.81;73.95
79244;SHT31;68672;42.676;23.356;2023-04-03T13:58:01;10.84;74.26
79244;SHT31;68672;42.676;23.356;2023-04-03T14:03:03;10.81;74.57
79244;SHT31;68672;42.676;23.356;2023-04-03T14:05:36;10.81;74.82
79244;SHT31;68672;42.676;23.356;2023-04-03T14:08:02;10.76;74.81
79244;SHT31;68672;42.676;23.356;2023-04-03T14:10:33;10.68;75.35
79244;SHT31;68672;42.676;23.356;2023-04-03T14:12:58;10.69;75.53
79244;SHT31;68672;42.676;23.356;2023-04-03T14:15:27;10.72;75.77
79244;SHT31;68672;42.676;23.356;2023-04-03T14:17:54;10.69;75.88
79244;SHT31;68672;42.676;23.356;2023-04-03T14:20:23;10.68;75.92
79244;SHT31;68672;42.676;23.356;2023-04-03T14:22:48;10.71;75.81
79244;SHT31;68672;42.676;23.356;2023-04-03T14:25:15;10.67;75.99
79244;SHT31;68672;42.676;23.356;2023-04-03T14:27:47;10.63;76.25
79244;SHT31;68672;42.676;23.356;2023-04-03T14:30:27;10.63;76.72
79244;SHT31;68672;42.676;23.356;2023-04-03T14:32:54;10.64;74.85
79244;SHT31;68672;42.676;23.356;2023-04-03T14:35:20;10.58;75.63
79244;SHT31;68672;42.676;23.356;2023-04-03T14:37:47;10.58;76.10
79244;SHT31;68672;42.676;23.356;2023-04-03T14:40:17;10.50;76.33
79244;SHT31;68672;42.676;23.356;2023-04-03T14:42:43;10.37;76.73
79244;SHT31;68672;42.676;23.356;2023-04-03T14:45:13;10.27;77.26
79244;SHT31;68672;42.676;23.356;2023-04-03T14:47:47;10.30;77.64
79244;SHT31;68672;42.676;23.356;2023-04-03T14:50:16;10.36;77.75
79244;SHT31;68672;42.676;23.356;2023-04-03T14:52:44;10.36;77.79
79244;SHT31;68672;42.676;23.356;2023-04-03T14:55:11;10.34;77.77
79244;SHT31;68672;42.676;23.356;2023-04-03T14:57:38;10.37;77.49
79244;SHT31;68672;42.676;23.356;2023-04-03T15:00:07;10.38;77.51
79244;SHT31;68672;42.676;23.356;2023-04-03T15:02:35;10.32;77.44
79244;SHT31;68672;42.676;23.356;2023-04-03T15:05:06;10.33;77.34
79244;SHT31;68672;42.676;23.356;2023-04-03T15:07:40;10.34;77.46
79244;SHT31;68672;42.676;23.356;2023-04-03T15:12:39;10.36;77.39
79244;SHT31;68672;42.676;23.356;2023-04-03T15:15:06;10.43;77.10
79244;SHT31;68672;42.676;23.356;2023-04-03T15:17:31;10.43;76.75
79244;SHT31;68672;42.676;23.356;2023-04-03T15:19:58;10.44;76.55
79244;SHT31;68672;42.676;23.356;2023-04-03T15:22:23;10.34;76.40
79244;SHT31;68672;42.676;23.356;2023-04-03T15:24:55;10.32;76.58
79244;SHT31;68672;42.676;23.356;2023-04-03T15:27:20;10.29;76.42
79244;SHT31;68672;42.676;23.356;2023-04-03T15:29:46;10.24;76.60
79244;SHT31;68672;42.676;23.356;2023-04-03T15:32:12;10.18;76.77
79244;SHT31;68672;42.676;23.356;2023-04-03T15:34:38;10.17;76.57
79244;SHT31;68672;42.676;23.356;2023-04-03T15:37:04;10.18;77.05
79244;SHT31;68672;42.676;23.356;2023-04-03T15:39:30;10.12;76.92
79244;SHT31;68672;42.676;23.356;2023-04-03T15:41:56;10.13;77.24
79244;SHT31;68672;42.676;23.356;2023-04-03T15:44:24;10.17;77.16
79244;SHT31;68672;42.676;23.356;2023-04-03T15:46:50;10.16;77.31
79244;SHT31;68672;42.676;23.356;2023-04-03T15:49:18;10.16;77.43
79244;SHT31;68672;42.676;23.356;2023-04-03T15:51:44;10.23;76.95
79244;SHT31;68672;42.676;23.356;2023-04-03T15:54:09;10.26;77.00
79244;SHT31;68672;42.676;23.356;2023-04-03T15:56:35;10.23;77.09
79244;SHT31;68672;42.676;23.356;2023-04-03T15:59:00;10.27;77.17
79244;SHT31;68672;42.676;23.356;2023-04-03T16:01:28;10.27;77.02
79244;SHT31;68672;42.676;23.356;2023-04-03T16:03:54;10.23;77.14
79244;SHT31;68672;42.676;23.356;2023-04-03T16:06:20;10.21;77.47
79244;SHT31;68672;42.676;23.356;2023-04-03T16:08:47;10.20;77.56
79244;SHT31;68672;42.676;23.356;2023-04-03T16:11:13;10.14;77.88
79244;SHT31;68672;42.676;23.356;2023-04-03T16:13:39;10.18;77.98
79244;SHT31;68672;42.676;23.356;2023-04-03T16:16:05;10.18;77.67
79244;SHT31;68672;42.676;23.356;2023-04-03T16:18:31;10.09;77.86
79244;SHT31;68672;42.676;23.356;2023-04-03T16:20:59;10.04;78.16
79244;SHT31;68672;42.676;23.356;2023-04-03T16:23:27;10.00;78.41
79244;SHT31;68672;42.676;23.356;2023-04-03T16:25:52;10.00;78.62
79244;SHT31;68672;42.676;23.356;2023-04-03T16:28:18;10.04;78.61
79244;SHT31;68672;42.676;23.356;2023-04-03T16:30:45;10.06;78.68
79244;SHT31;68672;42.676;23.356;2023-04-03T16:33:12;10.09;78.53
79244;SHT31;68672;42.676;23.356;2023-04-03T16:35:38;10.07;78.59
79244;SHT31;68672;42.676;23.356;2023-04-03T16:38:04;10.09;78.46
79244;SHT31;68672;42.676;23.356;2023-04-03T16:40:32;10.17;78.39
79244;SHT31;68672;42.676;23.356;2023-04-03T16:43:00;10.21;78.17
79244;SHT31;68672;42.676;23.356;2023-04-03T16:45:26;10.26;78.20
79244;SHT31;68672;42.676;23.356;2023-04-03T16:47:54;10.27;77.95
79244;SHT31;68672;42.676;23.356;2023-04-03T16:50:19;10.29;77.71
79244;SHT31;68672;42.676;23.356;2023-04-03T16:52:46;10.34;77.53
79244;SHT31;68672;42.676;23.356;2023-04-03T16:55:12;10.33;77.34
79244;SHT31;68672;42.676;23.356;2023-04-03T16:57:37;10.34;77.24
79244;SHT31;68672;42.676;23.356;2023-04-03T17:00:03;10.33;77.15
79244;SHT31;68672;42.676;23.356;2023-04-03T17:02:29;10.32;77.00
79244;SHT31;68672;42.676;23.356;2023-04-03T17:04:55;10.34;76.72
79244;SHT31;68672;42.676;23.356;2023-04-03T17:07:22;10.33;76.65
79244;SHT31;68672;42.676;23.356;2023-04-03T17:09:48;10.37;76.11
79244;SHT31;68672;42.676;23.356;2023-04-03T17:12:14;10.34;76.16
79244;SHT31;68672;42.676;23.356;2023-04-03T17:14:40;10.29;76.10
79244;SHT31;68672;42.676;23.356;2023-04-03T17:17:11;10.30;76.14
79244;SHT31;68672;42.676;23.356;2023-04-03T17:19:39;10.23;75.34
79244;SHT31;68672;42.676;23.356;2023-04-03T17:22:09;10.09;74.90
79244;SHT31;68672;42.676;23.356;2023-04-03T17:24:35;10.02;75.99